Time;durP1;ratioP1;P1;durP2;ratioP2;P2;SDS_P1;SDS_P2;PMS_P1;PMS_P2;Temp;Humidity;BMP_temperature;BMP_pressure;BME280_temperature;BME280_humidity;BME280_pressure;Samples;Min_cycle;Max_cycle;Signal;HPM_P1;HPM_P2
2023/04/20 00:00:29;;;;;;;;;;;21.40;82.90;;;;;;5120425;27;19908;-50
2023/04/20 00:02:55;;;;;;;;;;;21.30;82.90;;;;;;5120354;27;19918;-48
2023/04/20 00:05:22;;;;;;;;;;;21.30;83.20;;;;;;5120382;27;20299;-48
2023/04/20 00:07:47;;;;;;;;;;;21.30;83.40;;;;;;5118498;27;19908;-51
2023/04/20 00:10:13;;;;;;;;;;;21.20;83.50;;;;;;5117375;28;20353;-49
2023/04/20 00:12:38;;;;;;;;;;;21.10;83.70;;;;;;5115628;28;19911;-47
2023/04/20 00:15:04;;;;;;;;;;;21.00;83.90;;;;;;5117246;28;19911;-50
2023/04/20 00:17:29;;;;;;;;;;;21.00;84.10;;;;;;5117277;28;20370;-48
2023/04/20 00:19:55;;;;;;;;;;;20.90;84.00;;;;;;5117285;28;19961;-49
2023/04/20 00:22:20;;;;;;;;;;;20.90;84.20;;;;;;5117200;28;19908;-51
2023/04/20 00:24:46;;;;;;;;;;;20.90;84.30;;;;;;5117221;28;20002;-48
2023/04/20 00:27:11;;;;;;;;;;;20.90;84.20;;;;;;5117141;28;19999;-48
2023/04/20 00:29:37;;;;;;;;;;;21.00;84.20;;;;;;5116828;28;19907;-49
2023/04/20 00:32:02;;;;;;;;;;;21.10;83.80;;;;;;5116987;28;19911;-49
2023/04/20 00:34:28;;;;;;;;;;;21.30;83.50;;;;;;5117006;28;19957;-52
2023/04/20 00:36:53;;;;;;;;;;;21.50;83.00;;;;;;5116569;28;19961;-48
2023/04/20 00:39:19;;;;;;;;;;;21.70;82.40;;;;;;5116981;28;19908;-50
2023/04/20 00:41:44;;;;;;;;;;;21.80;82.00;;;;;;5116342;28;19916;-49
2023/04/20 00:44:12;;;;;;;;;;;21.70;82.10;;;;;;5116830;28;19923;-46
2023/04/20 00:46:38;;;;;;;;;;;21.70;82.30;;;;;;5116476;28;19960;-49
2023/04/20 00:49:04;;;;;;;;;;;21.70;82.60;;;;;;5116216;28;19908;-49
2023/04/20 00:51:30;;;;;;;;;;;21.60;82.70;;;;;;5116174;28;19915;-46
2023/04/20 00:53:56;;;;;;;;;;;21.50;82.90;;;;;;5116591;28;19912;-45
2023/04/20 00:56:22;;;;;;;;;;;21.50;83.10;;;;;;5116588;27;20420;-51
2023/04/20 00:58:47;;;;;;;;;;;21.40;83.20;;;;;;5116853;28;20001;-51
2023/04/20 01:01:16;;;;;;;;;;;21.30;83.40;;;;;;5116225;28;20278;-47
2023/04/20 01:03:42;;;;;;;;;;;21.20;83.60;;;;;;5116371;28;20335;-51
2023/04/20 01:06:08;;;;;;;;;;;21.20;83.80;;;;;;5116420;28;19911;-48
2023/04/20 01:08:33;;;;;;;;;;;21.10;83.90;;;;;;5116075;28;19953;-47
2023/04/20 01:10:59;;;;;;;;;;;21.00;84.00;;;;;;5116364;28;19957;-48
2023/04/20 01:13:24;;;;;;;;;;;21.00;84.20;;;;;;5116191;28;19971;-50
2023/04/20 01:15:50;;;;;;;;;;;20.90;84.30;;;;;;5116201;28;20419;-50
2023/04/20 01:18:17;;;;;;;;;;;20.90;84.20;;;;;;5116284;28;19915;-50
2023/04/20 01:20:43;;;;;;;;;;;20.90;84.20;;;;;;5115925;28;19907;-50
2023/04/20 01:23:09;;;;;;;;;;;20.90;83.90;;;;;;5116377;28;19914;-48
2023/04/20 01:25:35;;;;;;;;;;;21.00;83.90;;;;;;5115684;28;19946;-49
2023/04/20 01:28:00;;;;;;;;;;;21.10;83.60;;;;;;5115650;28;19993;-52
2023/04/20 01:30:26;;;;;;;;;;;21.40;83.10;;;;;;5115978;28;20270;-53
2023/04/20 01:32:52;;;;;;;;;;;21.70;82.40;;;;;;5115890;28;20000;-48
2023/04/20 01:35:17;;;;;;;;;;;22.00;81.80;;;;;;5115487;28;19912;-52
2023/04/20 01:37:42;;;;;;;;;;;22.10;81.90;;;;;;5115768;28;20354;-48
2023/04/20 01:40:09;;;;;;;;;;;22.10;81.20;;;;;;5116041;28;19981;-51
2023/04/20 01:42:34;;;;;;;;;;;22.00;81.20;;;;;;5115470;28;19919;-53
2023/04/20 01:45:00;;;;;;;;;;;22.00;81.50;;;;;;5115630;28;19995;-48
2023/04/20 01:47:26;;;;;;;;;;;21.90;81.60;;;;;;5115593;28;19947;-48
2023/04/20 01:49:51;;;;;;;;;;;21.80;82.00;;;;;;5115265;28;19915;-50
2023/04/20 01:52:17;;;;;;;;;;;21.70;82.10;;;;;;5114979;28;19912;-49
2023/04/20 01:54:42;;;;;;;;;;;21.60;82.50;;;;;;5115078;28;20011;-48
2023/04/20 01:57:07;;;;;;;;;;;21.50;82.80;;;;;;5115668;28;20412;-47
2023/04/20 01:59:33;;;;;;;;;;;21.50;83.00;;;;;;5115330;28;20007;-52
2023/04/20 02:01:58;;;;;;;;;;;21.40;83.20;;;;;;5115348;27;19915;-52
2023/04/20 02:04:24;;;;;;;;;;;21.30;83.30;;;;;;5115023;28;19912;-51
2023/04/20 02:06:49;;;;;;;;;;;21.20;83.50;;;;;;5115177;28;19915;-50
2023/04/20 02:09:15;;;;;;;;;;;21.20;83.70;;;;;;5114951;28;19908;-49
2023/04/20 02:11:40;;;;;;;;;;;21.10;83.90;;;;;;5115130;28;19915;-53
2023/04/20 02:14:06;;;;;;;;;;;21.00;84.00;;;;;;5114779;28;19919;-49
2023/04/20 02:16:31;;;;;;;;;;;21.00;84.00;;;;;;5115423;28;20310;-48
2023/04/20 02:18:57;;;;;;;;;;;21.00;83.90;;;;;;5114749;28;19954;-50
2023/04/20 02:21:22;;;;;;;;;;;21.00;83.90;;;;;;5114731;28;19908;-47
2023/04/20 02:23:48;;;;;;;;;;;21.00;83.70;;;;;;5114950;28;20002;-49
2023/04/20 02:26:13;;;;;;;;;;;21.20;83.50;;;;;;5114604;28;19962;-48
2023/04/20 02:28:39;;;;;;;;;;;21.40;83.00;;;;;;5114805;28;19915;-51
2023/04/20 02:31:04;;;;;;;;;;;21.70;82.50;;;;;;5114016;28;20371;-49
2023/04/20 02:33:30;;;;;;;;;;;22.00;81.80;;;;;;5113477;28;20259;-49
2023/04/20 02:35:56;;;;;;;;;;;22.10;81.60;;;;;;5114473;28;19922;-51
2023/04/20 02:38:21;;;;;;;;;;;22.10;81.30;;;;;;5114769;28;20368;-48
2023/04/20 02:40:47;;;;;;;;;;;22.10;81.50;;;;;;5114766;28;20375;-52
2023/04/20 02:43:12;;;;;;;;;;;22.00;81.40;;;;;;5114782;28;19979;-49
2023/04/20 02:45:38;;;;;;;;;;;21.90;81.80;;;;;;5114909;28;19914;-49
2023/04/20 02:48:03;;;;;;;;;;;21.90;82.00;;;;;;5114366;28;19968;-49
2023/04/20 02:50:29;;;;;;;;;;;21.80;82.30;;;;;;5114568;28;19914;-49
2023/04/20 02:52:54;;;;;;;;;;;21.70;82.40;;;;;;5114577;28;19915;-46
2023/04/20 02:55:20;;;;;;;;;;;21.60;82.60;;;;;;5114231;28;19943;-49
2023/04/20 02:57:45;;;;;;;;;;;21.50;82.80;;;;;;5114448;28;19907;-47
2023/04/20 03:00:12;;;;;;;;;;;21.40;82.90;;;;;;5114119;28;19908;-46
2023/04/20 03:02:38;;;;;;;;;;;21.30;83.20;;;;;;5114473;28;20018;-46
2023/04/20 03:05:03;;;;;;;;;;;21.30;83.40;;;;;;5114326;28;20060;-49
2023/04/20 03:07:29;;;;;;;;;;;21.20;83.50;;;;;;5114353;28;19961;-49
2023/04/20 03:09:55;;;;;;;;;;;21.10;83.60;;;;;;5114308;28;19912;-48
2023/04/20 03:12:21;;;;;;;;;;;21.10;83.90;;;;;;5114386;28;20290;-50
2023/04/20 03:14:46;;;;;;;;;;;21.00;83.90;;;;;;5113978;28;20376;-47
2023/04/20 03:17:12;;;;;;;;;;;21.00;83.80;;;;;;5114286;28;19908;-52
2023/04/20 03:19:37;;;;;;;;;;;21.10;83.90;;;;;;5114011;28;19960;-50
2023/04/20 03:22:03;;;;;;;;;;;21.20;83.70;;;;;;5114630;28;20266;-48
2023/04/20 03:24:28;;;;;;;;;;;21.50;83.20;;;;;;5113333;28;19910;-47
2023/04/20 03:26:54;;;;;;;;;;;21.70;82.50;;;;;;5117531;27;20010;-50
2023/04/20 03:29:19;;;;;;;;;;;21.90;82.00;;;;;;5114199;28;19908;-51
2023/04/20 03:31:45;;;;;;;;;;;21.90;81.50;;;;;;5113784;28;19916;-49
2023/04/20 03:34:10;;;;;;;;;;;22.00;81.60;;;;;;5113954;28;19918;-48
2023/04/20 03:36:36;;;;;;;;;;;21.90;81.90;;;;;;5113695;28;19915;-49
2023/04/20 03:39:03;;;;;;;;;;;21.90;82.00;;;;;;5114434;28;19908;-49
2023/04/20 03:41:29;;;;;;;;;;;21.70;82.20;;;;;;5113807;28;19907;-50
2023/04/20 03:43:55;;;;;;;;;;;21.70;82.40;;;;;;5115635;28;19992;-50
2023/04/20 03:46:20;;;;;;;;;;;21.60;82.60;;;;;;5117559;28;20342;-51
2023/04/20 03:48:46;;;;;;;;;;;21.50;82.80;;;;;;5117743;28;19912;-46
2023/04/20 03:51:11;;;;;;;;;;;21.50;83.00;;;;;;5119609;27;19911;-47
2023/04/20 03:53:37;;;;;;;;;;;21.40;83.20;;;;;;5117594;28;19912;-50
2023/04/20 03:56:02;;;;;;;;;;;21.30;83.50;;;;;;5117597;28;19964;-48
2023/04/20 03:58:28;;;;;;;;;;;21.20;83.60;;;;;;5116343;28;19908;-49
2023/04/20 04:00:59;;;;;;;;;;;21.10;83.80;;;;;;5116990;28;19912;-47
2023/04/20 04:03:25;;;;;;;;;;;21.10;83.80;;;;;;5117303;28;19998;-46
2023/04/20 04:05:50;;;;;;;;;;;21.00;83.60;;;;;;5117551;28;19950;-50
2023/04/20 04:08:15;;;;;;;;;;;21.00;84.10;;;;;;5117276;28;19919;-48
2023/04/20 04:10:41;;;;;;;;;;;21.00;84.20;;;;;;5117440;28;20471;-47
2023/04/20 04:13:06;;;;;;;;;;;21.00;84.10;;;;;;5116065;28;19914;-46
2023/04/20 04:15:32;;;;;;;;;;;21.00;84.10;;;;;;5125476;27;19922;-48
2023/04/20 04:17:57;;;;;;;;;;;21.20;83.60;;;;;;5127167;27;19912;-53
2023/04/20 04:20:23;;;;;;;;;;;21.40;83.50;;;;;;5117099;28;19914;-50
2023/04/20 04:22:48;;;;;;;;;;;21.70;83.20;;;;;;5116414;27;19912;-50
2023/04/20 04:25:14;;;;;;;;;;;21.80;80.60;;;;;;5116428;27;19919;-52
2023/04/20 04:27:39;;;;;;;;;;;21.90;81.60;;;;;;5119054;27;19947;-52
2023/04/20 04:30:05;;;;;;;;;;;21.80;81.90;;;;;;5121803;27;19941;-51
2023/04/20 04:32:33;;;;;;;;;;;21.80;82.10;;;;;;5118994;27;19915;-49
2023/04/20 04:34:59;;;;;;;;;;;21.70;82.30;;;;;;5136177;27;19937;-52
2023/04/20 04:37:26;;;;;;;;;;;21.60;82.40;;;;;;5135136;27;20278;-51
2023/04/20 04:39:51;;;;;;;;;;;21.60;82.60;;;;;;5133212;27;19916;-52
2023/04/20 04:42:16;;;;;;;;;;;21.50;82.80;;;;;;5133192;27;20394;-51
2023/04/20 04:44:42;;;;;;;;;;;21.50;83.40;;;;;;5115149;28;19912;-51
2023/04/20 04:47:10;;;;;;;;;;;21.40;82.50;;;;;;5117304;27;20288;-50
2023/04/20 04:49:36;;;;;;;;;;;21.30;81.10;;;;;;5132175;27;20418;-51
2023/04/20 04:52:01;;;;;;;;;;;21.20;82.50;;;;;;5132118;27;20010;-51
2023/04/20 04:54:27;;;;;;;;;;;21.10;83.70;;;;;;5114873;27;19916;-52
2023/04/20 04:56:52;;;;;;;;;;;21.10;84.00;;;;;;5126274;27;19908;-49
2023/04/20 04:59:18;;;;;;;;;;;21.00;84.20;;;;;;5116785;27;20010;-50
2023/04/20 05:01:43;;;;;;;;;;;21.00;84.40;;;;;;5115208;28;19908;-48
2023/04/20 05:04:09;;;;;;;;;;;20.90;84.50;;;;;;5121510;27;19911;-55
2023/04/20 05:06:34;;;;;;;;;;;20.90;84.40;;;;;;5130797;27;20010;-54
2023/04/20 05:09:00;;;;;;;;;;;20.90;84.60;;;;;;5130935;27;20006;-52
2023/04/20 05:11:25;;;;;;;;;;;20.90;84.70;;;;;;5126656;27;20261;-52
2023/04/20 05:13:51;;;;;;;;;;;21.00;85.20;;;;;;5132978;27;19912;-52
2023/04/20 05:16:16;;;;;;;;;;;21.10;84.50;;;;;;5134952;27;20348;-55
2023/04/20 05:18:42;;;;;;;;;;;21.30;84.00;;;;;;5136347;27;19964;-55
2023/04/20 05:21:08;;;;;;;;;;;21.50;83.60;;;;;;5121696;27;19915;-54
2023/04/20 05:23:33;;;;;;;;;;;21.60;83.10;;;;;;5116323;27;19919;-57
2023/04/20 05:25:59;;;;;;;;;;;21.70;82.80;;;;;;5112980;27;19955;-53
2023/04/20 05:28:24;;;;;;;;;;;21.80;82.60;;;;;;5115855;28;19919;-52
2023/04/20 05:30:49;;;;;;;;;;;21.80;82.60;;;;;;5117150;27;19911;-56
2023/04/20 05:33:15;;;;;;;;;;;21.80;82.60;;;;;;5114491;28;20018;-56
2023/04/20 05:35:40;;;;;;;;;;;21.70;82.80;;;;;;5123350;27;20223;-55
2023/04/20 05:38:06;;;;;;;;;;;21.70;83.00;;;;;;5136112;27;20415;-56
2023/04/20 05:40:33;;;;;;;;;;;21.70;83.10;;;;;;5124509;27;19911;-57
2023/04/20 05:42:59;;;;;;;;;;;21.60;83.20;;;;;;5132875;27;20278;-57
2023/04/20 05:45:25;;;;;;;;;;;21.50;83.30;;;;;;5134206;27;19923;-55
2023/04/20 05:47:54;;;;;;;;;;;21.40;83.60;;;;;;5135907;27;19914;-55
2023/04/20 05:50:21;;;;;;;;;;;21.40;83.80;;;;;;5128722;27;19911;-53
2023/04/20 05:52:47;;;;;;;;;;;21.30;84.00;;;;;;5129443;27;19922;-54
2023/04/20 05:55:12;;;;;;;;;;;21.20;84.10;;;;;;5133890;27;20275;-53
2023/04/20 05:57:41;;;;;;;;;;;21.20;84.40;;;;;;5135403;27;20006;-55
2023/04/20 06:00:10;;;;;;;;;;;21.10;84.50;;;;;;5133045;27;19919;-56
2023/04/20 06:02:36;;;;;;;;;;;21.10;84.70;;;;;;5128927;27;19918;-54
2023/04/20 06:05:02;;;;;;;;;;;21.00;84.80;;;;;;5113107;27;19912;-51
2023/04/20 06:07:27;;;;;;;;;;;21.00;84.90;;;;;;5113662;28;19915;-52
2023/04/20 06:09:53;;;;;;;;;;;20.90;85.00;;;;;;5123541;27;19919;-53
2023/04/20 06:12:18;;;;;;;;;;;20.90;85.10;;;;;;5135117;27;20350;-52
2023/04/20 06:14:44;;;;;;;;;;;20.90;85.20;;;;;;5115979;27;19968;-55
2023/04/20 06:17:09;;;;;;;;;;;20.90;85.20;;;;;;5113611;28;19911;-53
2023/04/20 06:19:35;;;;;;;;;;;20.90;85.30;;;;;;5128564;27;19972;-53
2023/04/20 06:22:04;;;;;;;;;;;20.90;85.20;;;;;;5124526;27;19988;-51
2023/04/20 06:24:30;;;;;;;;;;;20.90;85.10;;;;;;5111075;27;19912;-55
2023/04/20 06:26:56;;;;;;;;;;;21.00;85.20;;;;;;5114405;28;19947;-54
2023/04/20 06:29:21;;;;;;;;;;;21.00;85.20;;;;;;5114270;28;20347;-55
2023/04/20 06:31:47;;;;;;;;;;;21.00;85.20;;;;;;5113034;28;19908;-54
2023/04/20 06:34:13;;;;;;;;;;;21.00;85.10;;;;;;5132544;27;19967;-54
2023/04/20 06:36:42;;;;;;;;;;;21.10;85.10;;;;;;5117487;27;20262;-56
2023/04/20 06:39:08;;;;;;;;;;;21.10;85.00;;;;;;5126194;27;20017;-55
2023/04/20 06:41:33;;;;;;;;;;;21.10;84.90;;;;;;5114164;27;20051;-55
2023/04/20 06:43:59;;;;;;;;;;;21.20;84.90;;;;;;5113917;28;19926;-55
2023/04/20 06:46:25;;;;;;;;;;;21.20;84.80;;;;;;5123100;27;19922;-55
2023/04/20 06:48:50;;;;;;;;;;;21.20;84.80;;;;;;5135085;27;19907;-55
2023/04/20 06:51:15;;;;;;;;;;;21.20;84.70;;;;;;5129581;27;19939;-54
2023/04/20 06:53:41;;;;;;;;;;;21.20;84.70;;;;;;5119735;27;19962;-55
2023/04/20 06:56:06;;;;;;;;;;;21.20;84.70;;;;;;5114156;28;19948;-55
2023/04/20 06:58:32;;;;;;;;;;;21.20;84.70;;;;;;5115135;28;20360;-53
2023/04/20 07:00:57;;;;;;;;;;;21.20;84.70;;;;;;5126266;28;20389;-52
2023/04/20 07:03:23;;;;;;;;;;;21.20;84.60;;;;;;5129886;27;19911;-57
2023/04/20 07:05:48;;;;;;;;;;;21.20;84.60;;;;;;5134681;27;19914;-56
2023/04/20 07:08:17;;;;;;;;;;;21.20;84.60;;;;;;5132658;27;19934;-58
2023/04/20 07:10:42;;;;;;;;;;;21.30;84.70;;;;;;5133098;27;19918;-54
2023/04/20 07:13:08;;;;;;;;;;;21.20;84.60;;;;;;5126966;27;19919;-54
2023/04/20 07:15:33;;;;;;;;;;;21.20;84.60;;;;;;5112715;27;20026;-56
2023/04/20 07:17:58;;;;;;;;;;;21.20;84.60;;;;;;5123042;27;19931;-54
2023/04/20 07:20:24;;;;;;;;;;;21.20;84.70;;;;;;5139070;27;19907;-57
2023/04/20 07:22:50;;;;;;;;;;;21.20;84.70;;;;;;5133990;27;19911;-52
2023/04/20 07:25:16;;;;;;;;;;;21.20;84.70;;;;;;5116642;27;20010;-57
2023/04/20 07:27:42;;;;;;;;;;;21.20;84.80;;;;;;5117982;28;19962;-54
2023/04/20 07:30:09;;;;;;;;;;;21.20;84.90;;;;;;5118040;28;19980;-57
2023/04/20 07:32:35;;;;;;;;;;;21.20;84.90;;;;;;5118383;27;19912;-56
2023/04/20 07:35:00;;;;;;;;;;;21.30;84.90;;;;;;5132813;27;19923;-51
2023/04/20 07:37:26;;;;;;;;;;;21.30;84.90;;;;;;5117311;27;20366;-57
2023/04/20 07:39:52;;;;;;;;;;;21.30;84.90;;;;;;5117567;28;20002;-57
2023/04/20 07:42:18;;;;;;;;;;;21.30;84.80;;;;;;5118754;27;19916;-51
2023/04/20 07:44:43;;;;;;;;;;;21.30;84.10;;;;;;5116597;27;19911;-54
2023/04/20 07:47:09;;;;;;;;;;;21.30;84.40;;;;;;5122003;27;19908;-56
2023/04/20 07:49:35;;;;;;;;;;;21.30;84.50;;;;;;5124799;27;20398;-57
2023/04/20 07:52:00;;;;;;;;;;;21.30;84.50;;;;;;5119056;27;19960;-55
2023/04/20 07:54:26;;;;;;;;;;;21.30;84.60;;;;;;5117180;27;20010;-52
2023/04/20 07:56:52;;;;;;;;;;;21.30;84.70;;;;;;5124570;27;20418;-54
2023/04/20 07:59:17;;;;;;;;;;;21.30;84.60;;;;;;5126761;27;19934;-54
2023/04/20 08:01:43;;;;;;;;;;;21.20;84.70;;;;;;5132891;27;20352;-55
2023/04/20 08:04:08;;;;;;;;;;;21.20;84.60;;;;;;5136633;27;20349;-52
2023/04/20 08:06:34;;;;;;;;;;;21.20;84.80;;;;;;5132160;27;19911;-56
2023/04/20 08:08:59;;;;;;;;;;;21.10;84.80;;;;;;5112481;27;19912;-56
2023/04/20 08:11:25;;;;;;;;;;;21.10;84.90;;;;;;5112512;27;19919;-54
2023/04/20 08:13:51;;;;;;;;;;;21.10;84.90;;;;;;5117964;27;19916;-56
2023/04/20 08:16:16;;;;;;;;;;;21.20;84.90;;;;;;5114891;27;19922;-53
2023/04/20 08:18:42;;;;;;;;;;;21.20;84.80;;;;;;5115195;27;19994;-54
2023/04/20 08:21:07;;;;;;;;;;;21.20;84.70;;;;;;5116334;27;19919;-57
2023/04/20 08:23:32;;;;;;;;;;;21.30;84.70;;;;;;5116794;28;19953;-51
2023/04/20 08:25:58;;;;;;;;;;;21.30;84.60;;;;;;5115707;27;20034;-57
2023/04/20 08:28:23;;;;;;;;;;;21.30;84.50;;;;;;5115048;27;19912;-56
2023/04/20 08:30:50;;;;;;;;;;;21.30;84.50;;;;;;5115321;28;19907;-54
2023/04/20 08:33:16;;;;;;;;;;;21.30;84.60;;;;;;5128541;27;19924;-56
2023/04/20 08:35:42;;;;;;;;;;;21.30;84.60;;;;;;5116819;28;20021;-53
2023/04/20 08:38:07;;;;;;;;;;;21.30;84.60;;;;;;5115915;27;19951;-51
2023/04/20 08:40:34;;;;;;;;;;;21.30;84.70;;;;;;5116804;27;20282;-52
2023/04/20 08:43:00;;;;;;;;;;;21.20;84.70;;;;;;5116762;28;20372;-54
2023/04/20 08:45:25;;;;;;;;;;;21.20;84.80;;;;;;5114734;27;19949;-54
2023/04/20 08:47:51;;;;;;;;;;;21.20;84.90;;;;;;5118444;27;19943;-54
2023/04/20 08:50:17;;;;;;;;;;;21.10;84.90;;;;;;5115025;28;19958;-53
2023/04/20 08:52:44;;;;;;;;;;;21.10;85.00;;;;;;5116478;28;19915;-57
2023/04/20 08:55:09;;;;;;;;;;;21.10;85.00;;;;;;5122136;27;19922;-55
2023/04/20 08:57:35;;;;;;;;;;;21.10;85.00;;;;;;5133422;27;20141;-56
2023/04/20 09:00:01;;;;;;;;;;;21.20;85.00;;;;;;5116725;27;19937;-57
2023/04/20 09:02:27;;;;;;;;;;;21.20;84.80;;;;;;5114419;27;20380;-56
2023/04/20 09:05:03;;;;;;;;;;;21.30;84.60;;;;;;5136571;27;19952;-56
2023/04/20 09:07:29;;;;;;;;;;;21.40;84.20;;;;;;5121147;27;19943;-57
2023/04/20 09:09:58;;;;;;;;;;;21.50;84.00;;;;;;5110396;27;20039;-56
2023/04/20 09:12:24;;;;;;;;;;;21.50;83.90;;;;;;5136390;27;20010;-55
2023/04/20 09:14:49;;;;;;;;;;;21.50;83.90;;;;;;5122153;27;20357;-58
2023/04/20 09:17:16;;;;;;;;;;;21.50;83.80;;;;;;5114228;27;19915;-54
2023/04/20 09:19:50;;;;;;;;;;;21.50;83.90;;;;;;5115606;27;20010;-58
2023/04/20 09:22:16;;;;;;;;;;;21.50;84.00;;;;;;5114808;28;19914;-53
2023/04/20 09:24:41;;;;;;;;;;;21.40;84.10;;;;;;5134040;27;19911;-55
2023/04/20 09:27:17;;;;;;;;;;;21.40;84.20;;;;;;5113873;27;19912;-54
2023/04/20 09:29:42;;;;;;;;;;;21.30;84.30;;;;;;5102357;27;19912;-55
2023/04/20 09:32:18;;;;;;;;;;;21.30;84.40;;;;;;5119245;27;19924;-57
2023/04/20 09:34:44;;;;;;;;;;;21.20;84.50;;;;;;5135480;27;19965;-56
2023/04/20 09:37:13;;;;;;;;;;;21.20;84.70;;;;;;5134165;27;19911;-54
2023/04/20 09:39:41;;;;;;;;;;;21.10;84.90;;;;;;5135919;27;19911;-56
2023/04/20 09:42:10;;;;;;;;;;;21.10;85.00;;;;;;5119201;27;19912;-56
2023/04/20 09:44:36;;;;;;;;;;;21.10;85.10;;;;;;5115702;28;19918;-56
2023/04/20 09:47:02;;;;;;;;;;;21.10;85.00;;;;;;5116128;27;19912;-55
2023/04/20 09:49:28;;;;;;;;;;;21.20;85.00;;;;;;5115557;28;19908;-57
2023/04/20 09:51:54;;;;;;;;;;;21.20;84.80;;;;;;5128052;27;19918;-56
2023/04/20 09:54:19;;;;;;;;;;;21.40;85.10;;;;;;5135907;27;19911;-58
2023/04/20 09:56:45;;;;;;;;;;;21.50;84.20;;;;;;5123038;27;19916;-55
2023/04/20 09:59:10;;;;;;;;;;;21.60;83.80;;;;;;5115489;28;19934;-53
2023/04/20 10:01:36;;;;;;;;;;;21.70;83.60;;;;;;5118577;27;19916;-56
2023/04/20 10:04:05;;;;;;;;;;;21.80;83.30;;;;;;5114155;27;19994;-55
2023/04/20 10:06:32;;;;;;;;;;;21.80;83.10;;;;;;5110932;27;19912;-56
2023/04/20 10:09:00;;;;;;;;;;;21.80;83.10;;;;;;5114737;28;19908;-57
2023/04/20 10:11:35;;;;;;;;;;;21.80;83.10;;;;;;5114890;28;19912;-56
2023/04/20 10:14:15;;;;;;;;;;;21.80;83.30;;;;;;5147501;27;19922;-58
2023/04/20 10:16:41;;;;;;;;;;;21.70;83.80;;;;;;5133286;27;19957;-55
2023/04/20 10:19:06;;;;;;;;;;;21.70;84.00;;;;;;5132371;27;19911;-55
2023/04/20 10:21:32;;;;;;;;;;;21.60;83.60;;;;;;5125041;27;20308;-56
2023/04/20 10:23:59;;;;;;;;;;;21.50;83.70;;;;;;5114683;28;20416;-59
2023/04/20 10:26:41;;;;;;;;;;;21.50;83.90;;;;;;5116870;27;19924;-55
2023/04/20 10:29:07;;;;;;;;;;;21.50;84.10;;;;;;5110041;27;19997;-54
2023/04/20 10:31:37;;;;;;;;;;;21.40;84.20;;;;;;5130458;27;20529;-55
2023/04/20 10:34:02;;;;;;;;;;;21.40;84.30;;;;;;5120735;27;20073;-56
2023/04/20 10:36:29;;;;;;;;;;;21.40;84.50;;;;;;5113109;28;20362;-57
2023/04/20 10:38:55;;;;;;;;;;;21.40;84.30;;;;;;5122260;27;20354;-54
2023/04/20 10:41:21;;;;;;;;;;;21.50;84.10;;;;;;5133439;27;19907;-51
2023/04/20 10:43:46;;;;;;;;;;;21.60;84.00;;;;;;5114141;27;19972;-53
2023/04/20 10:46:12;;;;;;;;;;;21.70;83.60;;;;;;5121516;27;20411;-58
2023/04/20 10:48:47;;;;;;;;;;;21.80;83.30;;;;;;5114433;27;20254;-55
2023/04/20 10:51:13;;;;;;;;;;;21.90;83.00;;;;;;5122713;27;20381;-56
2023/04/20 10:53:38;;;;;;;;;;;21.90;82.80;;;;;;5118245;27;19916;-52
2023/04/20 10:56:04;;;;;;;;;;;22.00;82.90;;;;;;5113978;28;19984;-57
2023/04/20 10:58:30;;;;;;;;;;;21.90;82.90;;;;;;5114421;28;19947;-57
2023/04/20 11:00:56;;;;;;;;;;;21.90;83.10;;;;;;5119450;28;19918;-56
2023/04/20 11:03:22;;;;;;;;;;;21.80;83.20;;;;;;5134953;27;19916;-54
2023/04/20 11:05:49;;;;;;;;;;;21.70;83.20;;;;;;5121865;27;19941;-52
2023/04/20 11:08:14;;;;;;;;;;;21.70;83.50;;;;;;5112965;28;19912;-51
2023/04/20 11:10:41;;;;;;;;;;;21.60;83.60;;;;;;5119132;28;19912;-54
2023/04/20 11:13:07;;;;;;;;;;;21.60;83.70;;;;;;5131240;27;20006;-54
2023/04/20 11:15:35;;;;;;;;;;;21.50;83.90;;;;;;5117913;28;20039;-52
2023/04/20 11:18:07;;;;;;;;;;;21.50;84.10;;;;;;5115628;27;20030;-55
2023/04/20 11:20:32;;;;;;;;;;;21.40;84.20;;;;;;5114083;28;19915;-58
2023/04/20 11:22:58;;;;;;;;;;;21.40;84.30;;;;;;5130678;28;19919;-55
2023/04/20 11:25:24;;;;;;;;;;;21.40;84.20;;;;;;5134250;27;19908;-54
2023/04/20 11:27:49;;;;;;;;;;;21.50;84.20;;;;;;5116979;27;19960;-56
2023/04/20 11:30:15;;;;;;;;;;;21.50;83.70;;;;;;5116200;27;19911;-55
2023/04/20 11:32:40;;;;;;;;;;;21.60;83.80;;;;;;5116746;28;20351;-54
2023/04/20 11:35:08;;;;;;;;;;;21.70;83.60;;;;;;5118176;28;20014;-55
2023/04/20 11:37:45;;;;;;;;;;;21.70;83.60;;;;;;5128950;27;20013;-51
2023/04/20 11:40:10;;;;;;;;;;;21.70;83.60;;;;;;5118649;27;19918;-52
2023/04/20 11:42:36;;;;;;;;;;;21.60;83.60;;;;;;5115283;28;19919;-51
2023/04/20 11:45:02;;;;;;;;;;;21.50;83.60;;;;;;5112050;28;19919;-51
2023/04/20 11:47:27;;;;;;;;;;;21.50;83.70;;;;;;5109448;28;19915;-45
2023/04/20 11:49:53;;;;;;;;;;;21.40;83.70;;;;;;5120730;27;19915;-50
2023/04/20 11:52:18;;;;;;;;;;;21.40;83.80;;;;;;5118356;27;19981;-52
2023/04/20 11:54:44;;;;;;;;;;;21.30;83.90;;;;;;5113510;28;20228;-49
2023/04/20 11:57:10;;;;;;;;;;;21.30;84.10;;;;;;5113947;28;19918;-52
2023/04/20 11:59:35;;;;;;;;;;;21.20;84.20;;;;;;5113120;28;20374;-50
2023/04/20 12:02:02;;;;;;;;;;;21.20;84.20;;;;;;5113664;28;19931;-52
2023/04/20 12:04:28;;;;;;;;;;;21.10;84.30;;;;;;5123865;27;19919;-56
2023/04/20 12:06:54;;;;;;;;;;;21.10;84.30;;;;;;5127320;27;19908;-53
2023/04/20 12:09:20;;;;;;;;;;;21.10;84.30;;;;;;5121228;27;19908;-56
2023/04/20 12:11:45;;;;;;;;;;;21.20;84.30;;;;;;5118382;27;19911;-56
2023/04/20 12:14:11;;;;;;;;;;;21.30;84.10;;;;;;5126874;27;19912;-57
2023/04/20 12:16:36;;;;;;;;;;;21.50;83.80;;;;;;5117306;28;20354;-58
2023/04/20 12:19:02;;;;;;;;;;;21.70;83.40;;;;;;5117087;28;20355;-54
2023/04/20 12:21:27;;;;;;;;;;;21.90;82.80;;;;;;5116750;28;20350;-54
2023/04/20 12:23:53;;;;;;;;;;;22.00;82.50;;;;;;5116774;28;19908;-52
2023/04/20 12:26:18;;;;;;;;;;;22.00;82.40;;;;;;5116907;28;19960;-55
2023/04/20 12:28:44;;;;;;;;;;;22.00;82.50;;;;;;5117080;28;19915;-53
2023/04/20 12:31:09;;;;;;;;;;;22.00;82.60;;;;;;5116971;27;19915;-57
2023/04/20 12:33:35;;;;;;;;;;;21.90;82.80;;;;;;5116925;28;20362;-54
2023/04/20 12:36:00;;;;;;;;;;;21.80;83.40;;;;;;5116750;28;20278;-57
2023/04/20 12:38:26;;;;;;;;;;;21.80;83.20;;;;;;5116838;28;19951;-56
2023/04/20 12:40:51;;;;;;;;;;;21.70;83.20;;;;;;5116763;28;19912;-56
2023/04/20 12:43:16;;;;;;;;;;;21.60;83.40;;;;;;5114960;28;20265;-50
2023/04/20 12:45:42;;;;;;;;;;;21.60;83.60;;;;;;5116352;28;19931;-54
2023/04/20 12:48:07;;;;;;;;;;;21.50;83.70;;;;;;5116020;28;19919;-57
2023/04/20 12:50:33;;;;;;;;;;;21.40;83.90;;;;;;5115162;28;20342;-55
2023/04/20 12:52:58;;;;;;;;;;;21.40;84.10;;;;;;5116233;28;19919;-53
2023/04/20 12:55:25;;;;;;;;;;;21.30;84.20;;;;;;5116256;28;19912;-52
2023/04/20 12:57:50;;;;;;;;;;;21.30;84.40;;;;;;5116376;28;19915;-56
2023/04/20 13:00:16;;;;;;;;;;;21.20;84.50;;;;;;5115609;27;19947;-51
2023/04/20 13:02:41;;;;;;;;;;;21.20;84.60;;;;;;5128053;27;19919;-56
2023/04/20 13:05:07;;;;;;;;;;;21.10;84.80;;;;;;5119197;27;19927;-56
2023/04/20 13:07:32;;;;;;;;;;;21.10;85.50;;;;;;5118379;27;20346;-55
2023/04/20 13:09:59;;;;;;;;;;;21.20;84.90;;;;;;5114993;28;20021;-60
2023/04/20 13:12:25;;;;;;;;;;;21.30;84.80;;;;;;5115792;27;20251;-56
2023/04/20 13:14:50;;;;;;;;;;;21.50;84.40;;;;;;5124843;27;19923;-55
2023/04/20 13:17:16;;;;;;;;;;;21.80;83.90;;;;;;5117994;27;19919;-55
2023/04/20 13:19:42;;;;;;;;;;;22.00;83.10;;;;;;5135514;27;19911;-55
2023/04/20 13:22:07;;;;;;;;;;;22.30;82.80;;;;;;5122002;27;19919;-52
2023/04/20 13:24:33;;;;;;;;;;;22.40;82.30;;;;;;5116201;27;19908;-56
2023/04/20 13:26:58;;;;;;;;;;;22.10;76.60;;;;;;5119267;27;19973;-52
2023/04/20 13:29:24;;;;;;;;;;;22.10;81.00;;;;;;5120709;27;19915;-53
2023/04/20 13:31:49;;;;;;;;;;;22.10;81.60;;;;;;5121492;27;19907;-56
2023/04/20 13:34:15;;;;;;;;;;;22.10;81.80;;;;;;5117856;27;20316;-54
2023/04/20 13:36:40;;;;;;;;;;;22.00;82.00;;;;;;5136188;27;20342;-55
2023/04/20 13:39:06;;;;;;;;;;;21.90;82.10;;;;;;5133441;27;19907;-58
2023/04/20 13:41:32;;;;;;;;;;;21.80;82.30;;;;;;5125275;27;19919;-55
2023/04/20 13:43:59;;;;;;;;;;;21.80;82.60;;;;;;5114122;28;20286;-57
2023/04/20 13:46:24;;;;;;;;;;;21.70;82.80;;;;;;5115501;28;20315;-57
2023/04/20 13:48:50;;;;;;;;;;;21.60;82.90;;;;;;5130384;27;19907;-55
2023/04/20 13:51:15;;;;;;;;;;;21.60;83.10;;;;;;5115107;28;19911;-58
2023/04/20 13:53:41;;;;;;;;;;;21.50;83.30;;;;;;5118997;27;19915;-49
2023/04/20 13:56:06;;;;;;;;;;;21.50;82.70;;;;;;5125969;27;19923;-50
2023/04/20 13:58:32;;;;;;;;;;;21.40;83.30;;;;;;5115113;27;19994;-51
2023/04/20 14:00:57;;;;;;;;;;;21.30;83.30;;;;;;5127125;27;20227;-52
2023/04/20 14:03:24;;;;;;;;;;;21.30;83.40;;;;;;5111562;27;19911;-51
2023/04/20 14:05:49;;;;;;;;;;;21.30;83.40;;;;;;5128085;27;19911;-49
2023/04/20 14:08:15;;;;;;;;;;;21.40;83.30;;;;;;5132467;27;19915;-51